createdAt,value
2017-09-10T00:01:26.691Z,75.20
2017-09-10T00:03:55.064Z,75.40
2017-09-10T00:06:23.649Z,75.40
2017-09-10T00:08:57.342Z,75.40
2017-09-10T00:11:25.954Z,75.50
2017-09-10T00:13:54.853Z,75.60
2017-09-10T00:16:23.246Z,75.80
2017-09-10T00:18:51.829Z,75.90
2017-09-10T00:21:20.967Z,76.40
2017-09-10T00:23:49.280Z,76.40
2017-09-10T00:26:17.597Z,76.60
2017-09-10T00:28:45.941Z,76.60
2017-09-10T00:31:14.262Z,76.80
2017-09-10T00:33:44.558Z,77.00
2017-09-10T00:36:13.611Z,77.80
2017-09-10T00:38:44.041Z,77.20
2017-09-10T00:41:12.378Z,77.60
2017-09-10T00:43:40.727Z,77.70
2017-09-10T00:46:11.072Z,78.10
2017-09-10T00:48:40.667Z,78.30
2017-09-10T00:51:09.276Z,78.20
2017-09-10T00:53:38.401Z,78.50
2017-09-10T00:56:06.742Z,78.50
2017-09-10T00:58:35.906Z,79.70
2017-09-10T01:01:04.714Z,78.90
2017-09-10T01:03:33.017Z,79.00
2017-09-10T01:06:01.320Z,79.00
2017-09-10T01:08:30.417Z,79.40
2017-09-10T01:10:59.032Z,79.50
2017-09-10T01:13:28.105Z,79.60
2017-09-10T01:15:57.783Z,79.80
2017-09-10T01:18:26.637Z,79.80
2017-09-10T01:20:57.323Z,79.70
2017-09-10T01:23:27.271Z,79.90
2017-09-10T01:25:56.338Z,80.00
2017-09-10T01:28:24.664Z,80.00
2017-09-10T01:30:54.893Z,80.30
2017-09-10T01:33:23.215Z,80.40
2017-09-10T01:35:51.548Z,80.50
2017-09-10T01:38:19.862Z,80.70
2017-09-10T01:40:48.161Z,80.70
2017-09-10T01:43:16.495Z,80.80
2017-09-10T01:45:45.198Z,81.00
2017-09-10T01:48:13.584Z,81.10
2017-09-10T01:50:41.948Z,81.10
2017-09-10T01:53:11.086Z,81.40
2017-09-10T01:55:39.406Z,81.40
2017-09-10T01:58:07.885Z,81.40
2017-09-10T02:00:37.417Z,81.60
2017-09-10T02:03:08.241Z,81.70
2017-09-10T02:05:36.584Z,81.70
2017-09-10T02:08:07.488Z,81.70
2017-09-10T02:10:35.790Z,81.80
2017-09-10T02:13:05.935Z,82.00
2017-09-10T02:15:34.245Z,82.00
2017-09-10T02:18:03.569Z,82.00
2017-09-10T02:20:32.190Z,82.10
2017-09-10T02:23:01.815Z,82.20
2017-09-10T02:25:30.154Z,82.20
2017-09-10T02:27:59.256Z,82.30
2017-09-10T02:30:28.324Z,82.50
2017-09-10T02:32:56.811Z,82.30
2017-09-10T02:35:26.298Z,82.60
2017-09-10T02:40:32.671Z,82.50
2017-09-10T02:43:04.113Z,82.60
2017-09-10T02:45:32.555Z,82.60
2017-09-10T02:48:01.749Z,82.80
2017-09-10T02:50:32.063Z,82.80
2017-09-10T02:53:00.369Z,82.80
2017-09-10T02:55:29.068Z,82.80
2017-09-10T02:57:58.143Z,82.90
2017-09-10T03:00:26.767Z,82.90
2017-09-10T03:02:57.055Z,83.00
2017-09-10T03:05:26.203Z,83.00
2017-09-10T03:07:54.584Z,83.10
2017-09-10T03:10:23.666Z,83.30
2017-09-10T03:12:52.755Z,83.30
2017-09-10T03:15:21.080Z,83.30
2017-09-10T03:17:52.311Z,83.30
2017-09-10T03:20:20.636Z,83.30
2017-09-10T03:22:48.964Z,83.30
2017-09-10T03:25:18.660Z,84.40
2017-09-10T03:27:48.090Z,83.50
2017-09-10T03:30:17.178Z,83.70
2017-09-10T03:32:46.291Z,83.70
2017-09-10T03:35:15.383Z,83.80
2017-09-10T03:37:44.447Z,83.80
2017-09-10T03:40:12.762Z,83.80
2017-09-10T03:42:42.187Z,83.80
2017-09-10T03:45:10.524Z,83.80
2017-09-10T03:47:38.889Z,83.90
2017-09-10T03:50:08.283Z,83.90
2017-09-10T03:52:36.575Z,83.90
2017-09-10T03:55:05.629Z,83.90
2017-09-10T03:57:34.868Z,84.50
2017-09-10T04:00:03.215Z,84.30
2017-09-10T04:02:32.303Z,84.50
2017-09-10T04:05:01.419Z,85.40
2017-09-10T04:07:30.514Z,84.70
2017-09-10T04:09:59.582Z,84.70
2017-09-10T04:12:27.881Z,84.70
2017-09-10T04:14:56.184Z,84.90
2017-09-10T04:17:25.311Z,85.00
2017-09-10T04:19:53.606Z,85.70
2017-09-10T04:22:23.424Z,85.00
2017-09-10T04:24:51.720Z,85.20
2017-09-10T04:27:20.062Z,86.20
2017-09-10T04:29:48.940Z,85.40
2017-09-10T04:32:17.669Z,85.40
2017-09-10T04:34:45.981Z,85.60
2017-09-10T04:37:14.273Z,85.70
2017-09-10T04:39:42.711Z,85.90
2017-09-10T04:42:11.032Z,85.90
2017-09-10T04:44:40.124Z,85.90
2017-09-10T04:47:08.478Z,85.80
2017-09-10T04:49:36.801Z,86.00
2017-09-10T04:52:05.445Z,85.90
2017-09-10T04:54:33.801Z,85.90
2017-09-10T04:57:02.219Z,86.00
2017-09-10T04:59:30.586Z,86.00
2017-09-10T05:01:59.720Z,86.00
2017-09-10T05:04:28.058Z,86.10
2017-09-10T05:06:57.198Z,86.50
2017-09-10T05:09:25.522Z,86.50
2017-09-10T05:11:54.619Z,86.70
2017-09-10T05:14:23.739Z,86.50
2017-09-10T05:16:52.829Z,86.60
2017-09-10T05:19:21.944Z,86.70
2017-09-10T05:21:50.245Z,86.70
2017-09-10T05:24:18.581Z,86.70
2017-09-10T05:26:46.994Z,86.70
2017-09-10T05:29:16.064Z,86.80
2017-09-10T05:31:44.361Z,86.70
2017-09-10T05:34:13.047Z,86.80
2017-09-10T05:36:42.135Z,86.80
2017-09-10T05:39:13.395Z,87.60
2017-09-10T05:41:42.495Z,87.20
2017-09-10T05:44:11.582Z,86.80
2017-09-10T05:46:39.999Z,86.80
2017-09-10T05:49:09.077Z,87.00
2017-09-10T05:51:42.719Z,87.00
2017-09-10T05:54:11.273Z,87.00
2017-09-10T05:56:40.380Z,86.80
2017-09-10T05:59:08.784Z,86.80
2017-09-10T06:01:37.124Z,86.90
2017-09-10T06:04:06.342Z,86.90
2017-09-10T06:06:35.850Z,87.00
2017-09-10T06:09:04.230Z,86.80
2017-09-10T06:11:33.301Z,86.80
2017-09-10T06:14:01.635Z,86.70
2017-09-10T06:16:30.682Z,86.70
2017-09-10T06:18:59.031Z,86.50
2017-09-10T06:21:27.464Z,86.30
2017-09-10T06:23:59.791Z,86.30
2017-09-10T06:26:28.098Z,86.30
2017-09-10T06:28:56.391Z,86.10
2017-09-10T06:31:24.852Z,86.00
2017-09-10T06:33:53.172Z,86.00
2017-09-10T06:36:23.089Z,86.00
2017-09-10T06:38:51.411Z,86.00
2017-09-10T06:41:19.727Z,85.90
2017-09-10T06:43:48.042Z,85.90
2017-09-10T06:46:17.195Z,85.80
2017-09-10T06:48:57.732Z,85.80
2017-09-10T06:51:27.417Z,85.70
2017-09-10T06:53:57.384Z,85.50
2017-09-10T06:56:25.724Z,85.30
2017-09-10T06:58:54.780Z,85.30
2017-09-10T07:01:23.093Z,85.30
2017-09-10T07:03:51.400Z,85.10
2017-09-10T07:06:20.489Z,84.10
2017-09-10T07:08:49.613Z,83.70
2017-09-10T07:11:19.124Z,83.50
2017-09-10T07:13:47.436Z,83.50
2017-09-10T07:16:16.141Z,83.30
2017-09-10T07:18:44.440Z,83.00
2017-09-10T07:21:12.795Z,82.90
2017-09-10T07:23:41.093Z,82.90
2017-09-10T07:26:10.269Z,82.80
2017-09-10T07:28:38.605Z,82.70
2017-09-10T07:31:07.712Z,82.60
2017-09-10T07:33:36.783Z,82.30
2017-09-10T07:36:05.451Z,82.30
2017-09-10T07:38:33.766Z,82.00
2017-09-10T07:41:02.868Z,81.80
2017-09-10T07:43:31.204Z,81.80
2017-09-10T07:45:59.560Z,81.60
2017-09-10T07:48:27.925Z,81.30
2017-09-10T07:50:57.006Z,81.10
2017-09-10T07:53:25.331Z,80.30
2017-09-10T07:55:53.648Z,79.90
2017-09-10T07:58:22.764Z,79.50
2017-09-10T08:00:52.414Z,80.30
2017-09-10T08:03:21.982Z,78.80
2017-09-10T08:05:50.289Z,78.80
2017-09-10T08:08:19.385Z,77.90
2017-09-10T08:10:48.482Z,77.90
2017-09-10T08:13:17.551Z,78.00
2017-09-10T08:15:45.889Z,77.90
2017-09-10T08:18:14.953Z,77.80
2017-09-10T08:20:44.947Z,77.50
2017-09-10T08:23:13.279Z,77.60
2017-09-10T08:25:41.609Z,77.30
2017-09-10T08:28:09.943Z,77.20
2017-09-10T08:30:39.027Z,77.30
2017-09-10T08:33:07.379Z,77.20
2017-09-10T08:35:35.699Z,76.50
2017-09-10T08:38:04.010Z,74.90
2017-09-10T08:40:32.323Z,73.50
2017-09-10T08:43:00.661Z,72.20
2017-09-10T08:45:29.737Z,70.90
2017-09-10T08:47:58.809Z,70.90
2017-09-10T08:50:27.167Z,70.00
2017-09-10T08:52:55.487Z,69.40
2017-09-10T08:55:24.503Z,68.60
2017-09-10T08:57:52.860Z,68.30
2017-09-10T09:00:21.183Z,67.90
2017-09-10T09:02:50.347Z,66.60
2017-09-10T09:05:18.684Z,66.60
2017-09-10T09:07:47.016Z,66.60
2017-09-10T09:10:15.331Z,66.60
2017-09-10T09:12:44.416Z,66.10
2017-09-10T09:15:12.795Z,66.00
2017-09-10T09:17:41.166Z,65.40
2017-09-10T09:20:09.514Z,64.40
2017-09-10T09:22:37.840Z,63.80
2017-09-10T09:25:06.147Z,63.40
2017-09-10T09:27:35.247Z,62.20
2017-09-10T09:30:04.321Z,61.60
2017-09-10T09:32:33.541Z,61.40
2017-09-10T09:35:02.635Z,60.70
2017-09-10T09:37:31.733Z,60.40
2017-09-10T09:40:00.048Z,60.30
2017-09-10T09:42:28.377Z,60.00
2017-09-10T09:44:56.689Z,59.40
2017-09-10T09:47:25.045Z,58.60
2017-09-10T09:49:53.343Z,58.00
2017-09-10T09:52:22.425Z,57.80
2017-09-10T09:54:53.771Z,57.70
2017-09-10T09:57:22.094Z,57.90
2017-09-10T09:59:51.147Z,58.50
2017-09-10T10:02:19.441Z,58.50
2017-09-10T10:04:47.815Z,58.20
2017-09-10T10:07:16.120Z,58.30
2017-09-10T10:09:44.419Z,58.70
2017-09-10T10:12:13.553Z,59.50
2017-09-10T10:14:41.843Z,59.40
2017-09-10T10:17:10.184Z,59.90
2017-09-10T10:19:39.255Z,59.60
2017-09-10T10:22:07.573Z,59.60
2017-09-10T10:24:35.863Z,59.70
2017-09-10T10:27:04.947Z,59.40
2017-09-10T10:29:41.530Z,59.90
2017-09-10T10:32:11.030Z,59.90
2017-09-10T10:34:40.124Z,61.10
2017-09-10T10:37:09.230Z,61.50
2017-09-10T10:39:38.526Z,62.60
2017-09-10T10:42:08.897Z,62.70
2017-09-10T10:44:37.938Z,62.40
2017-09-10T10:47:07.720Z,62.30
2017-09-10T10:49:36.035Z,61.20
2017-09-10T10:52:06.211Z,59.80
2017-09-10T10:54:34.892Z,58.90
2017-09-10T10:57:03.905Z,59.00
2017-09-10T10:59:32.215Z,58.10
2017-09-10T11:02:00.556Z,57.50
2017-09-10T11:04:29.619Z,57.50
2017-09-10T11:06:57.931Z,57.30
2017-09-10T11:09:26.228Z,56.40
2017-09-10T11:11:54.528Z,55.60
2017-09-10T11:14:22.832Z,55.50
2017-09-10T11:16:51.149Z,55.50
2017-09-10T11:19:20.211Z,54.40
2017-09-10T11:21:48.656Z,54.40
2017-09-10T11:24:16.980Z,54.10
2017-09-10T11:26:45.322Z,54.20
2017-09-10T11:29:14.505Z,54.30
2017-09-10T11:31:42.808Z,53.60
2017-09-10T11:34:11.149Z,53.20
2017-09-10T11:36:39.779Z,52.80
2017-09-10T11:39:08.083Z,52.50
2017-09-10T11:41:36.414Z,52.10
2017-09-10T11:44:05.488Z,51.50
2017-09-10T11:46:33.838Z,51.40
2017-09-10T11:49:02.202Z,51.30
2017-09-10T11:51:31.210Z,50.60
2017-09-10T11:53:59.524Z,49.70
2017-09-10T11:56:27.831Z,49.20
2017-09-10T11:58:56.163Z,48.80
2017-09-10T12:01:24.518Z,48.50
2017-09-10T12:03:52.819Z,48.40
2017-09-10T12:06:21.102Z,48.20
2017-09-10T12:08:49.413Z,48.60
2017-09-10T12:11:17.788Z,49.20
2017-09-10T12:13:46.127Z,49.70
2017-09-10T12:16:15.198Z,50.90
2017-09-10T12:18:43.491Z,50.90
2017-09-10T12:21:11.938Z,50.90
2017-09-10T12:23:40.244Z,50.60
2017-09-10T12:26:08.540Z,50.60
2017-09-10T12:28:36.845Z,50.10
2017-09-10T12:31:05.158Z,50.00
2017-09-10T12:33:33.725Z,50.10
2017-09-10T12:36:02.061Z,50.20
2017-09-10T12:38:31.825Z,50.70
2017-09-10T12:41:00.135Z,50.70
2017-09-10T12:43:28.454Z,51.10
2017-09-10T12:45:57.541Z,50.80
2017-09-10T12:48:25.848Z,50.70
2017-09-10T12:50:54.904Z,51.80
2017-09-10T12:53:23.221Z,52.40
2017-09-10T12:55:52.353Z,52.00
2017-09-10T12:58:20.643Z,52.00
2017-09-10T13:00:48.964Z,51.50
2017-09-10T13:03:17.261Z,51.40
2017-09-10T13:05:45.620Z,51.60
2017-09-10T13:08:13.958Z,51.70
2017-09-10T13:10:42.280Z,52.20
2017-09-10T13:13:10.621Z,52.20
2017-09-10T13:15:39.723Z,52.00
2017-09-10T13:18:08.073Z,52.30
2017-09-10T13:20:36.678Z,52.50
2017-09-10T13:23:05.019Z,52.80
2017-09-10T13:25:33.350Z,52.90
2017-09-10T13:28:01.700Z,53.00
2017-09-10T13:30:30.829Z,51.30
2017-09-10T13:32:59.225Z,51.30
2017-09-10T13:35:27.531Z,50.70
2017-09-10T13:37:55.839Z,50.90
2017-09-10T13:40:24.193Z,51.10
2017-09-10T13:42:52.533Z,51.00
2017-09-10T13:45:21.598Z,49.40
2017-09-10T13:47:49.912Z,50.00
2017-09-10T13:50:18.227Z,48.80
2017-09-10T13:52:46.566Z,48.30
2017-09-10T13:55:14.884Z,48.10
2017-09-10T13:57:43.484Z,48.00
2017-09-10T14:00:11.828Z,47.60
2017-09-10T14:02:40.894Z,49.20
2017-09-10T14:05:09.180Z,49.20
2017-09-10T14:07:38.297Z,49.40
2017-09-10T14:10:07.513Z,49.40
2017-09-10T14:12:36.883Z,48.90
2017-09-10T14:15:05.188Z,48.70
2017-09-10T14:17:34.264Z,49.30
2017-09-10T14:20:02.654Z,49.20
2017-09-10T14:22:31.716Z,49.50
2017-09-10T14:25:00.655Z,50.00
2017-09-10T14:27:30.648Z,51.40
2017-09-10T14:29:58.993Z,51.40
2017-09-10T14:32:28.073Z,51.50
2017-09-10T14:34:57.148Z,52.10
2017-09-10T14:37:25.501Z,52.10
2017-09-10T14:39:54.600Z,52.10
2017-09-10T14:42:22.922Z,52.00
2017-09-10T14:44:51.592Z,52.60
2017-09-10T14:47:19.896Z,52.40
2017-09-10T14:49:48.230Z,52.50
2017-09-10T14:52:16.558Z,52.70
2017-09-10T14:54:44.881Z,52.60
2017-09-10T14:57:13.211Z,52.20
2017-09-10T14:59:41.970Z,51.50
2017-09-10T15:02:10.253Z,51.30
2017-09-10T15:04:38.586Z,51.50
2017-09-10T15:07:08.459Z,52.60
2017-09-10T15:09:37.712Z,52.60
2017-09-10T15:12:06.794Z,53.10
2017-09-10T15:14:35.091Z,52.80
2017-09-10T15:17:04.196Z,53.50
2017-09-10T15:19:32.513Z,53.00
2017-09-10T15:22:00.804Z,53.20
2017-09-10T15:24:29.112Z,53.10
2017-09-10T15:26:57.406Z,53.10
2017-09-10T15:29:25.735Z,53.40
2017-09-10T15:31:54.046Z,53.40
2017-09-10T15:34:25.635Z,53.40
2017-09-10T15:36:54.963Z,53.90
2017-09-10T15:39:24.772Z,54.20
2017-09-10T15:41:53.874Z,54.40
2017-09-10T15:44:22.972Z,54.60
2017-09-10T15:46:52.107Z,54.90
2017-09-10T15:49:20.455Z,54.90
2017-09-10T15:51:49.622Z,55.30
2017-09-10T15:54:18.824Z,55.30
2017-09-10T15:56:47.123Z,55.50
2017-09-10T15:59:15.680Z,55.60
2017-09-10T16:01:44.056Z,55.30
2017-09-10T16:04:12.357Z,55.10
2017-09-10T16:06:40.675Z,55.10
2017-09-10T16:09:09.019Z,55.30
2017-09-10T16:11:38.179Z,55.50
2017-09-10T16:14:07.226Z,55.80
2017-09-10T16:16:35.518Z,55.80
2017-09-10T16:19:03.920Z,55.90
2017-09-10T16:21:33.000Z,57.30
2017-09-10T16:24:01.403Z,56.50
2017-09-10T16:26:30.481Z,57.00
2017-09-10T16:28:58.793Z,56.90
2017-09-10T16:31:27.093Z,57.10
2017-09-10T16:33:55.436Z,57.30
2017-09-10T16:36:25.584Z,57.50
2017-09-10T16:38:53.883Z,57.90
2017-09-10T16:41:22.601Z,58.10
2017-09-10T16:43:50.903Z,58.20
2017-09-10T16:46:19.265Z,58.50
2017-09-10T16:48:48.361Z,59.50
2017-09-10T16:51:16.736Z,60.80
2017-09-10T16:53:45.122Z,62.10
2017-09-10T16:56:13.434Z,62.70
2017-09-10T16:58:41.731Z,63.40
2017-09-10T17:01:10.088Z,63.60
2017-09-10T17:03:38.399Z,63.70
2017-09-10T17:06:07.506Z,64.70
2017-09-10T17:08:37.592Z,63.70
2017-09-10T17:11:06.169Z,63.60
2017-09-10T17:13:35.038Z,63.60
2017-09-10T17:16:03.360Z,63.60
2017-09-10T17:18:31.647Z,63.50
2017-09-10T17:21:00.010Z,64.40
2017-09-10T17:23:28.309Z,63.70
2017-09-10T17:25:56.641Z,63.60
2017-09-10T17:28:24.959Z,63.60
2017-09-10T17:30:53.258Z,63.70
2017-09-10T17:33:21.561Z,63.80
2017-09-10T17:35:49.946Z,63.60
2017-09-10T17:38:19.016Z,63.60
2017-09-10T17:40:47.430Z,63.60
2017-09-10T17:43:15.768Z,63.80
2017-09-10T17:45:49.287Z,63.90
2017-09-10T17:48:19.666Z,64.40
2017-09-10T17:50:49.432Z,64.50
2017-09-10T17:53:17.741Z,64.50
2017-09-10T17:55:46.830Z,64.70
2017-09-10T17:58:15.159Z,64.70
2017-09-10T18:00:43.476Z,65.00
2017-09-10T18:03:11.789Z,65.10
2017-09-10T18:05:40.993Z,66.10
2017-09-10T18:08:10.069Z,66.20
2017-09-10T18:10:38.363Z,65.20
2017-09-10T18:13:06.714Z,65.30
2017-09-10T18:15:35.019Z,65.80
2017-09-10T18:18:03.327Z,65.90
2017-09-10T18:20:31.715Z,65.90
2017-09-10T18:23:00.037Z,66.10
2017-09-10T18:25:28.360Z,66.30
2017-09-10T18:27:56.693Z,66.20
2017-09-10T18:30:25.051Z,66.20
2017-09-10T18:32:53.373Z,66.00
2017-09-10T18:35:21.693Z,65.90
2017-09-10T18:37:50.793Z,66.10
2017-09-10T18:40:20.782Z,66.20
2017-09-10T18:42:49.099Z,66.20
2017-09-10T18:45:18.243Z,66.20
2017-09-10T18:47:46.558Z,66.50
2017-09-10T18:50:14.903Z,65.70
2017-09-10T18:52:43.205Z,65.70
2017-09-10T18:55:12.387Z,65.90
2017-09-10T18:57:41.475Z,66.00
2017-09-10T19:00:09.784Z,65.90
2017-09-10T19:02:38.066Z,66.20
2017-09-10T19:05:06.389Z,66.20
2017-09-10T19:07:35.433Z,65.90
2017-09-10T19:10:03.799Z,65.70
2017-09-10T19:12:32.858Z,66.40
2017-09-10T19:15:01.335Z,66.40
2017-09-10T19:17:29.991Z,66.60
2017-09-10T19:19:58.284Z,66.80
2017-09-10T19:22:26.614Z,66.90
2017-09-10T19:24:55.693Z,66.70
2017-09-10T19:27:24.006Z,66.70
2017-09-10T19:29:52.624Z,66.70
2017-09-10T19:32:20.995Z,66.50
2017-09-10T19:34:49.983Z,66.60
2017-09-10T19:37:18.299Z,66.70
2017-09-10T19:39:46.595Z,66.80
2017-09-10T19:42:14.996Z,67.00
2017-09-10T19:44:43.324Z,67.30
2017-09-10T19:47:13.023Z,67.60
2017-09-10T19:49:41.362Z,68.30
2017-09-10T19:52:09.713Z,69.10
2017-09-10T19:54:38.021Z,69.70
2017-09-10T19:57:06.373Z,69.90
2017-09-10T19:59:34.696Z,70.30
2017-09-10T20:02:03.058Z,70.90
2017-09-10T20:04:31.370Z,71.60
2017-09-10T20:06:59.662Z,71.70
2017-09-10T20:09:28.841Z,71.70
2017-09-10T20:11:57.215Z,71.90
2017-09-10T20:14:25.520Z,71.90
2017-09-10T20:16:53.852Z,72.10
2017-09-10T20:19:22.183Z,72.50
2017-09-10T20:21:50.513Z,73.20
2017-09-10T20:24:18.857Z,73.60
2017-09-10T20:26:47.474Z,74.20
2017-09-10T20:29:15.812Z,74.80
2017-09-10T20:31:44.124Z,75.30
2017-09-10T20:34:13.201Z,76.00
2017-09-10T20:36:41.519Z,75.80
2017-09-10T20:39:10.591Z,75.70
2017-09-10T20:41:39.568Z,75.80
2017-09-10T20:44:07.870Z,75.50
2017-09-10T20:46:36.194Z,75.30
2017-09-10T20:49:04.519Z,76.10
2017-09-10T20:51:32.826Z,75.00
2017-09-10T20:54:01.907Z,74.60
2017-09-10T20:56:31.145Z,74.50
2017-09-10T20:59:01.130Z,74.60
2017-09-10T21:01:29.418Z,74.60
2017-09-10T21:03:57.753Z,74.20
2017-09-10T21:06:26.080Z,73.90
2017-09-10T21:08:54.391Z,73.60
2017-09-10T21:11:23.470Z,73.40
2017-09-10T21:13:51.784Z,73.30
2017-09-10T21:16:20.185Z,73.20
2017-09-10T21:18:48.491Z,73.00
2017-09-10T21:21:17.588Z,72.70
2017-09-10T21:23:46.580Z,72.70
2017-09-10T21:26:16.112Z,72.70
2017-09-10T21:28:44.478Z,72.60
2017-09-10T21:31:13.619Z,72.70
2017-09-10T21:33:42.698Z,73.00
2017-09-10T21:36:10.997Z,73.00
2017-09-10T21:38:40.089Z,73.90
2017-09-10T21:41:08.379Z,73.50
2017-09-10T21:43:37.623Z,73.70
2017-09-10T21:46:06.627Z,74.70
2017-09-10T21:48:34.931Z,75.60
2017-09-10T21:51:04.063Z,76.60
2017-09-10T21:53:33.368Z,77.60
2017-09-10T21:56:02.490Z,78.20
2017-09-10T21:58:32.392Z,78.60
2017-09-10T22:01:01.491Z,79.00
2017-09-10T22:03:30.547Z,79.30
2017-09-10T22:05:59.111Z,79.30
2017-09-10T22:08:27.563Z,79.60
2017-09-10T22:10:56.705Z,80.10
2017-09-10T22:13:25.020Z,80.00
2017-09-10T22:15:54.050Z,79.90
2017-09-10T22:18:23.139Z,80.30
2017-09-10T22:20:52.206Z,80.30
2017-09-10T22:23:20.496Z,80.20
2017-09-10T22:25:48.810Z,80.20
2017-09-10T22:28:17.927Z,80.20
2017-09-10T22:30:47.657Z,80.20
2017-09-10T22:33:17.809Z,80.20
2017-09-10T22:35:46.140Z,80.20
2017-09-10T22:38:15.228Z,80.00
2017-09-10T22:40:44.340Z,80.00
2017-09-10T22:43:12.663Z,79.90
2017-09-10T22:45:40.967Z,80.10
2017-09-10T22:48:09.296Z,80.00
2017-09-10T22:50:37.611Z,79.90
2017-09-10T22:53:05.899Z,79.90
2017-09-10T22:55:34.975Z,80.70
2017-09-10T22:58:03.287Z,80.10
2017-09-10T23:00:31.712Z,80.30
2017-09-10T23:03:00.024Z,80.50
2017-09-10T23:05:28.328Z,80.70
2017-09-10T23:07:56.631Z,80.80
2017-09-10T23:10:28.545Z,81.10
2017-09-10T23:12:56.843Z,81.00
2017-09-10T23:15:25.180Z,81.20
2017-09-10T23:17:53.494Z,81.40
2017-09-10T23:20:22.670Z,81.60
2017-09-10T23:22:51.794Z,81.70
2017-09-10T23:25:21.647Z,81.70
2017-09-10T23:27:50.121Z,82.00
2017-09-10T23:30:18.432Z,82.10
2017-09-10T23:35:21.342Z,82.20
2017-09-10T23:37:51.004Z,82.30
2017-09-10T23:40:19.302Z,82.20
2017-09-10T23:42:47.634Z,82.20
2017-09-10T23:45:17.288Z,81.90
2017-09-10T23:47:45.658Z,81.90
2017-09-10T23:50:13.963Z,81.80
2017-09-10T23:52:42.276Z,81.80
2017-09-10T23:55:10.588Z,81.80
2017-09-10T23:57:38.875Z,82.00
